createdAt,value
2023-05-16T00:01:19.657Z,3.27
2023-05-16T00:06:24.172Z,3.30
2023-05-16T00:11:28.498Z,4.40
2023-05-16T00:16:31.633Z,2.90
2023-05-16T00:21:36.011Z,3.33
2023-05-16T00:26:39.065Z,3.47
2023-05-16T00:31:42.627Z,2.70
2023-05-16T00:36:47.080Z,3.30
2023-05-16T00:41:51.340Z,3.00
2023-05-16T00:46:55.586Z,3.17
2023-05-16T00:52:00.191Z,3.03
2023-05-16T00:57:03.583Z,2.60
2023-05-16T01:02:06.797Z,4.03
2023-05-16T01:07:11.808Z,2.87
2023-05-16T01:12:23.719Z,2.70
2023-05-16T01:17:32.393Z,2.50
2023-05-16T01:22:51.444Z,2.50
2023-05-16T01:27:56.492Z,2.77
2023-05-16T01:32:59.616Z,2.80
2023-05-16T01:38:11.552Z,3.10
2023-05-16T01:43:22.279Z,2.90
2023-05-16T01:48:31.855Z,2.17
2023-05-16T01:53:39.990Z,2.30
2023-05-16T01:58:48.058Z,2.73
2023-05-16T02:03:51.767Z,3.10
2023-05-16T02:08:54.750Z,3.00
2023-05-16T02:13:59.172Z,2.40
2023-05-16T02:19:02.684Z,2.93
2023-05-16T02:24:06.316Z,3.30
2023-05-16T02:29:11.200Z,4.13
2023-05-16T02:34:14.324Z,2.37
2023-05-16T02:39:18.848Z,3.10
2023-05-16T02:44:23.127Z,2.70
2023-05-16T02:49:26.419Z,3.00
2023-05-16T02:54:29.426Z,3.03
2023-05-16T02:59:33.765Z,2.30
2023-05-16T03:04:37.116Z,2.50
2023-05-16T03:09:41.004Z,2.83
2023-05-16T03:14:45.496Z,2.50
2023-05-16T03:19:48.519Z,2.17
2023-05-16T03:24:51.843Z,3.53
2023-05-16T03:29:56.289Z,2.73
2023-05-16T03:34:59.435Z,3.10
2023-05-16T03:40:05.036Z,2.93
2023-05-16T03:45:10.474Z,2.37
2023-05-16T03:50:13.460Z,3.23
2023-05-16T03:55:16.577Z,2.37
2023-05-16T04:00:21.411Z,3.73
2023-05-16T04:05:24.777Z,2.63
2023-05-16T04:10:28.290Z,2.93
2023-05-16T04:15:32.617Z,3.10
2023-05-16T04:20:36.623Z,2.00
2023-05-16T04:25:39.563Z,2.20
2023-05-16T04:30:43.876Z,2.60
2023-05-16T04:35:47.180Z,2.50
2023-05-16T04:40:51.307Z,2.77
2023-05-16T04:45:55.991Z,2.33
2023-05-16T04:50:58.997Z,2.77
2023-05-16T04:56:02.241Z,2.13
2023-05-16T05:01:07.574Z,2.70
2023-05-16T05:06:10.635Z,2.13
2023-05-16T05:11:20.063Z,2.50
2023-05-16T05:16:24.575Z,3.40
2023-05-16T05:21:27.823Z,4.43
2023-05-16T05:26:31.019Z,2.27
2023-05-16T05:31:35.610Z,2.17
2023-05-16T05:36:38.779Z,2.53
2023-05-16T05:41:41.803Z,3.03
2023-05-16T05:46:46.925Z,2.00
2023-05-16T05:51:52.230Z,2.20
2023-05-16T05:56:55.240Z,2.30
2023-05-16T06:01:59.625Z,1.87
2023-05-16T06:07:02.735Z,2.27
2023-05-16T06:12:06.442Z,2.07
2023-05-16T06:17:10.752Z,2.50
2023-05-16T06:22:13.681Z,2.53
2023-05-16T06:27:16.716Z,2.40
2023-05-16T06:32:21.077Z,1.97
2023-05-16T06:37:26.187Z,2.03
2023-05-16T06:42:29.332Z,1.90
2023-05-16T06:47:33.813Z,2.00
2023-05-16T06:52:36.811Z,2.03
2023-05-16T06:57:39.807Z,3.60
2023-05-16T07:02:44.653Z,1.67
2023-05-16T07:07:49.593Z,2.43
2023-05-16T07:12:52.688Z,1.60
2023-05-16T07:17:57.362Z,2.10
2023-05-16T07:23:00.872Z,1.67
2023-05-16T07:28:03.952Z,1.57
2023-05-16T07:33:08.491Z,1.77
2023-05-16T07:38:11.820Z,1.63
2023-05-16T07:43:15.024Z,1.57
2023-05-16T07:48:19.498Z,2.07
2023-05-16T07:53:23.235Z,1.40
2023-05-16T07:58:26.574Z,1.43
2023-05-16T08:03:31.509Z,1.40
2023-05-16T08:08:34.905Z,1.67
2023-05-16T08:13:37.918Z,1.60
2023-05-16T08:18:42.634Z,1.10
2023-05-16T08:23:45.659Z,1.63
2023-05-16T08:28:49.842Z,1.80
2023-05-16T08:33:54.421Z,1.67
2023-05-16T08:38:57.474Z,1.60
2023-05-16T08:44:01.953Z,1.83
2023-05-16T08:49:08.045Z,1.50
2023-05-16T08:54:14.447Z,1.37
2023-05-16T08:59:18.395Z,1.17
2023-05-16T09:04:23.613Z,1.23
2023-05-16T09:09:27.023Z,1.60
2023-05-16T09:14:31.084Z,1.40
2023-05-16T09:19:41.327Z,1.40
2023-05-16T09:24:46.368Z,1.20
2023-05-16T09:29:52.519Z,1.97
2023-05-16T09:34:58.787Z,1.47
2023-05-16T09:40:02.683Z,1.53
2023-05-16T09:45:06.721Z,1.33
2023-05-16T09:50:11.912Z,1.30
2023-05-16T09:55:18.143Z,1.40
2023-05-16T10:00:21.640Z,1.30
2023-05-16T10:05:27.881Z,1.45
2023-05-16T10:10:31.525Z,1.35
2023-05-16T10:15:35.600Z,1.60
2023-05-16T10:20:42.900Z,1.63
2023-05-16T10:25:47.515Z,1.23
2023-05-16T10:30:52.127Z,1.90
2023-05-16T10:35:57.023Z,1.50
2023-05-16T10:41:00.319Z,1.40
2023-05-16T10:46:06.124Z,1.33
2023-05-16T10:51:37.900Z,1.17
2023-05-16T10:56:41.359Z,1.15
2023-05-16T11:01:44.689Z,1.35
2023-05-16T11:07:04.673Z,0.93
2023-05-16T11:12:11.060Z,1.52
2023-05-16T11:17:16.124Z,1.27
2023-05-16T11:22:29.619Z,1.25
2023-05-16T11:27:33.763Z,1.38
2023-05-16T11:32:38.600Z,1.60
2023-05-16T11:37:44.028Z,1.33
2023-05-16T11:42:48.796Z,1.30
2023-05-16T11:47:52.346Z,1.23
2023-05-16T11:52:57.596Z,1.20
2023-05-16T11:58:01.081Z,1.20
2023-05-16T12:03:06.368Z,1.13
2023-05-16T12:08:11.694Z,1.20
2023-05-16T12:13:15.022Z,1.00
2023-05-16T12:18:18.899Z,1.10
2023-05-16T12:23:24.094Z,1.65
2023-05-16T12:28:33.559Z,1.60
2023-05-16T12:33:39.192Z,1.50
2023-05-16T12:38:47.887Z,1.30
2023-05-16T12:43:52.004Z,1.40
2023-05-16T12:49:05.163Z,1.23
2023-05-16T12:54:14.001Z,0.88
2023-05-16T12:59:19.609Z,1.08
2023-05-16T13:04:24.054Z,1.20
2023-05-16T13:09:32.330Z,1.13
2023-05-16T13:14:36.507Z,1.17
2023-05-16T13:19:40.266Z,1.10
2023-05-16T13:24:45.233Z,1.27
2023-05-16T13:29:49.091Z,1.25
2023-05-16T13:34:52.853Z,1.20
2023-05-16T13:39:57.336Z,1.30
2023-05-16T13:45:00.557Z,1.20
2023-05-16T13:50:07.909Z,1.75
2023-05-16T13:55:12.931Z,0.98
2023-05-16T14:00:42.525Z,1.30
2023-05-16T14:05:40.416Z,1.08
2023-05-16T14:10:45.017Z,1.83
2023-05-16T14:15:48.699Z,1.30
2023-05-16T14:20:52.357Z,1.40
2023-05-16T14:25:57.303Z,1.10
2023-05-16T14:31:01.309Z,0.90
2023-05-16T14:36:07.792Z,1.48
2023-05-16T14:41:13.741Z,1.33
2023-05-16T14:46:17.676Z,1.48
2023-05-16T14:51:21.279Z,1.63
2023-05-16T14:56:26.482Z,1.30
2023-05-16T15:01:30.217Z,1.10
2023-05-16T15:06:33.770Z,1.08
2023-05-16T15:11:39.357Z,1.20
2023-05-16T15:16:43.290Z,1.50
2023-05-16T15:21:46.426Z,1.60
2023-05-16T15:26:51.464Z,0.90
2023-05-16T15:31:54.706Z,1.10
2023-05-16T15:36:58.310Z,1.00
2023-05-16T15:42:10.594Z,1.20
2023-05-16T15:47:14.372Z,1.00
2023-05-16T15:52:17.522Z,0.90
2023-05-16T15:57:22.023Z,1.33
2023-05-16T16:02:25.399Z,1.20
2023-05-16T16:07:28.624Z,1.52
2023-05-16T16:12:33.131Z,0.75
2023-05-16T16:17:36.376Z,0.93
2023-05-16T16:22:39.519Z,0.98
2023-05-16T16:27:44.055Z,0.77
2023-05-16T16:32:48.710Z,1.15
2023-05-16T16:38:05.753Z,1.10
2023-05-16T16:43:11.336Z,1.17
2023-05-16T16:48:14.776Z,1.38
2023-05-16T16:53:18.382Z,1.42
2023-05-16T16:58:23.732Z,1.40
2023-05-16T17:03:27.613Z,2.13
2023-05-16T17:08:31.261Z,1.77
2023-05-16T17:13:37.821Z,1.92
2023-05-16T17:18:41.527Z,2.45
2023-05-16T17:23:44.811Z,1.70
2023-05-16T17:28:50.673Z,2.00
2023-05-16T17:33:56.275Z,2.05
2023-05-16T17:39:00.156Z,1.73
2023-05-16T17:44:07.014Z,1.70
2023-05-16T17:49:10.388Z,1.83
2023-05-16T17:54:13.530Z,1.70
2023-05-16T17:59:19.256Z,1.60
2023-05-16T18:04:23.996Z,1.50
2023-05-16T18:09:27.734Z,2.00
2023-05-16T18:14:33.282Z,1.90
2023-05-16T18:19:38.359Z,1.40
2023-05-16T18:24:43.724Z,1.93
2023-05-16T18:29:50.361Z,1.70
2023-05-16T18:34:53.928Z,1.40
2023-05-16T18:39:57.721Z,2.17
2023-05-16T18:45:03.465Z,1.70
2023-05-16T18:50:08.468Z,1.90
2023-05-16T18:55:12.014Z,2.20
2023-05-16T19:00:17.777Z,1.63
2023-05-16T19:05:21.598Z,1.70
2023-05-16T19:10:26.114Z,1.60
2023-05-16T19:15:31.278Z,2.57
2023-05-16T19:20:35.314Z,2.70
2023-05-16T19:25:39.018Z,2.20
2023-05-16T19:30:45.312Z,2.20
2023-05-16T19:35:49.352Z,2.10
2023-05-16T19:40:53.330Z,2.33
2023-05-16T19:45:58.188Z,1.77
2023-05-16T19:51:33.075Z,2.27
2023-05-16T19:56:41.533Z,2.20
2023-05-16T20:01:46.897Z,3.13
2023-05-16T20:06:52.095Z,1.90
2023-05-16T20:11:57.469Z,2.10
2023-05-16T20:17:02.300Z,2.73
2023-05-16T20:22:06.313Z,2.47
2023-05-16T20:27:10.314Z,2.50
2023-05-16T20:32:16.092Z,2.20
2023-05-16T20:37:21.428Z,2.33
2023-05-16T20:42:24.399Z,2.50
2023-05-16T20:47:28.945Z,2.77
2023-05-16T20:52:36.264Z,2.50
2023-05-16T20:57:48.543Z,2.80
2023-05-16T21:02:55.837Z,2.43
2023-05-16T21:07:58.979Z,3.00
2023-05-16T21:13:02.070Z,2.70
2023-05-16T21:18:06.646Z,2.33
2023-05-16T21:23:10.109Z,2.20
2023-05-16T21:28:13.257Z,2.70
2023-05-16T21:33:17.860Z,3.37
2023-05-16T21:38:21.172Z,2.60
2023-05-16T21:43:24.584Z,2.70
2023-05-16T21:48:29.107Z,2.40
2023-05-16T21:53:32.484Z,3.07
2023-05-16T21:58:35.481Z,2.33
2023-05-16T22:03:39.978Z,3.20
2023-05-16T22:08:43.554Z,2.87
2023-05-16T22:13:46.649Z,2.73
2023-05-16T22:18:51.367Z,3.33
2023-05-16T22:23:54.429Z,3.57
2023-05-16T22:28:57.580Z,5.00
2023-05-16T22:34:02.836Z,2.87
2023-05-16T22:39:07.053Z,3.33
2023-05-16T22:44:10.039Z,3.60
2023-05-16T22:49:14.900Z,3.13
2023-05-16T22:54:18.072Z,3.43
2023-05-16T22:59:21.018Z,2.93
2023-05-16T23:04:25.555Z,4.27
2023-05-16T23:09:28.580Z,3.67
2023-05-16T23:14:31.520Z,4.03
2023-05-16T23:19:35.914Z,3.50
2023-05-16T23:24:39.435Z,3.87
2023-05-16T23:29:42.607Z,4.03
2023-05-16T23:34:47.100Z,4.00
2023-05-16T23:39:50.121Z,4.57
2023-05-16T23:44:53.109Z,4.20
2023-05-16T23:49:57.520Z,4.10
2023-05-16T23:55:00.650Z,4.17
